Time;durP1;ratioP1;P1;durP2;ratioP2;P2;SDS_P1;SDS_P2;PMS_P1;PMS_P2;Temp;Humidity;BMP_temperature;BMP_pressure;BME280_temperature;BME280_humidity;BME280_pressure;Samples;Min_cycle;Max_cycle;Signal;HPM_P1;HPM_P2
2023/07/17 00:01:17;;;;;;;2.67;2.40;;;;;;;19.47;54.27;98983.72;5131199;27;41848;-83
2023/07/17 00:03:45;;;;;;;3.37;2.63;;;;;;;19.48;54.13;98998.00;5130914;27;42444;-82
2023/07/17 00:06:13;;;;;;;3.10;2.70;;;;;;;19.46;54.37;98995.47;5114308;27;39139;-81
2023/07/17 00:08:41;;;;;;;2.87;2.50;;;;;;;19.44;54.71;98997.44;5114065;27;41802;-81
2023/07/17 00:11:09;;;;;;;3.50;2.77;;;;;;;19.43;54.85;98994.91;5131784;27;41821;-79
2023/07/17 00:13:37;;;;;;;2.37;1.97;;;;;;;19.44;54.96;98996.59;5131999;27;42369;-79
2023/07/17 00:16:05;;;;;;;4.87;2.90;;;;;;;19.40;55.21;98996.06;5115261;27;39689;-81
2023/07/17 00:18:34;;;;;;;2.87;2.67;;;;;;;19.36;55.42;98990.13;5132747;27;41787;-79
2023/07/17 00:21:02;;;;;;;5.37;3.00;;;;;;;19.31;55.61;98988.88;5116801;27;43163;-81
2023/07/17 00:23:30;;;;;;;4.33;2.80;;;;;;;19.10;56.12;98961.41;5118556;27;41787;-78
2023/07/17 00:26:33;;;;;;;2.73;2.30;;;;;;;19.19;56.38;98990.91;5118201;27;40523;-79
2023/07/17 00:29:28;;;;;;;3.10;2.40;;;;;;;19.18;56.69;98997.25;5135913;27;42408;-83
2023/07/17 00:31:56;;;;;;;2.97;2.20;;;;;;;19.15;56.78;98996.72;5118121;27;41755;-82
2023/07/17 00:34:25;;;;;;;2.90;2.60;;;;;;;19.12;56.65;98991.66;5118013;27;41268;-82
2023/07/17 00:36:54;;;;;;;2.87;2.57;;;;;;;19.09;56.77;98984.72;5116380;27;38978;-81
2023/07/17 00:39:23;;;;;;;3.10;2.67;;;;;;;18.92;57.20;98975.59;5117033;27;42724;-79
2023/07/17 00:41:52;;;;;;;3.40;2.90;;;;;;;19.00;57.35;98986.47;5116750;27;41893;-81
2023/07/17 00:44:19;;;;;;;3.67;2.93;;;;;;;18.92;57.66;98991.69;5134206;27;41557;-82
2023/07/17 00:46:52;;;;;;;2.80;2.50;;;;;;;18.87;57.60;98988.59;5117184;27;40280;-80
2023/07/17 00:49:21;;;;;;;3.73;2.50;;;;;;;18.83;57.86;99003.31;5134527;27;41672;-80
2023/07/17 00:51:49;;;;;;;2.77;2.20;;;;;;;18.78;58.03;98999.38;5116552;27;41482;-81
2023/07/17 00:54:19;;;;;;;2.80;2.50;;;;;;;18.67;58.09;98984.25;5116908;27;42407;-81
2023/07/17 00:56:47;;;;;;;2.67;2.30;;;;;;;18.68;57.98;98994.00;5116521;27;39293;-80
2023/07/17 00:59:15;;;;;;;2.60;2.40;;;;;;;18.55;58.00;98980.84;5134107;27;42713;-81
2023/07/17 01:01:44;;;;;;;2.70;2.50;;;;;;;18.62;58.42;98999.94;5116980;27;42883;-81
2023/07/17 01:04:14;;;;;;;2.60;2.40;;;;;;;18.57;58.46;99002.16;5133794;27;42668;-79
2023/07/17 01:06:42;;;;;;;3.57;2.57;;;;;;;18.53;58.57;99006.16;5133854;27;40046;-82
2023/07/17 01:09:12;;;;;;;3.37;2.70;;;;;;;18.48;59.07;99003.03;5116617;27;41778;-82
2023/07/17 01:11:40;;;;;;;3.07;2.50;;;;;;;18.36;59.15;98990.75;5117373;27;41791;-81
2023/07/17 01:14:15;;;;;;;2.97;2.60;;;;;;;18.37;59.14;99003.19;5136147;27;43164;-81
2023/07/17 01:16:43;;;;;;;6.27;2.90;;;;;;;18.33;59.17;99004.44;5117544;27;38727;-80
2023/07/17 01:19:11;;;;;;;3.10;2.80;;;;;;;18.27;59.68;99005.88;5134786;27;41743;-80
2023/07/17 01:21:45;;;;;;;3.17;2.70;;;;;;;18.22;59.96;99008.97;5117448;27;41925;-82
2023/07/17 01:24:14;;;;;;;4.60;2.77;;;;;;;18.18;59.72;99007.53;5117395;27;41198;-80
2023/07/17 01:26:42;;;;;;;3.27;2.70;;;;;;;18.10;59.94;99007.41;5117246;27;38630;-80
2023/07/17 01:29:10;;;;;;;3.93;2.50;;;;;;;18.00;60.04;98998.50;5117670;27;41009;-81
2023/07/17 01:31:39;;;;;;;3.50;2.80;;;;;;;18.05;60.09;99006.97;5133458;27;43839;-80
2023/07/17 01:34:08;;;;;;;3.70;2.87;;;;;;;18.05;60.45;99006.97;5131350;27;43218;-82
2023/07/17 01:36:36;;;;;;;4.23;2.90;;;;;;;18.01;60.40;99005.56;5117336;27;39485;-79
2023/07/17 01:39:04;;;;;;;3.80;3.03;;;;;;;18.01;60.68;99016.28;5133204;27;40639;-80
2023/07/17 01:41:34;;;;;;;3.30;2.60;;;;;;;17.91;60.71;98994.84;5133302;27;42422;-80
2023/07/17 01:44:02;;;;;;;3.93;2.67;;;;;;;17.98;60.50;99007.66;5116037;27;41242;-79
2023/07/17 01:46:30;;;;;;;2.90;2.50;;;;;;;17.82;60.71;98984.06;5133772;27;40133;-79
2023/07/17 01:48:58;;;;;;;3.77;2.70;;;;;;;17.88;60.87;98996.94;5116155;27;41814;-80
2023/07/17 01:51:25;;;;;;;4.07;2.90;;;;;;;17.90;61.15;99009.22;5115783;27;43148;-80
2023/07/17 01:53:53;;;;;;;3.00;2.57;;;;;;;17.85;61.20;99005.25;5116023;27;41053;-79
2023/07/17 01:56:21;;;;;;;4.90;3.00;;;;;;;17.83;61.46;99010.75;5133115;27;40999;-80
2023/07/17 01:58:50;;;;;;;4.40;2.80;;;;;;;17.80;61.64;99012.88;5133025;27;42535;-81
2023/07/17 02:01:18;;;;;;;2.90;2.60;;;;;;;17.67;61.66;98993.53;5115840;27;41800;-82
2023/07/17 02:03:47;;;;;;;4.83;2.97;;;;;;;17.73;61.99;99006.34;5132742;27;43250;-80
2023/07/17 02:06:15;;;;;;;5.80;3.07;;;;;;;17.57;62.13;98983.56;5115914;27;38866;-81
2023/07/17 02:08:43;;;;;;;3.93;2.90;;;;;;;17.59;62.12;99005.72;5132699;27;41505;-80
2023/07/17 02:11:10;;;;;;;4.87;2.93;;;;;;;17.72;62.46;99023.41;5116574;27;41892;-78
2023/07/17 02:13:38;;;;;;;3.10;2.70;;;;;;;17.64;62.21;98997.31;5133816;27;42942;-79
2023/07/17 02:16:07;;;;;;;3.77;2.80;;;;;;;17.72;62.33;99005.50;5116871;27;39295;-79
2023/07/17 02:18:35;;;;;;;3.50;2.67;;;;;;;17.79;62.17;99016.53;5116605;27;41805;-81
2023/07/17 02:21:04;;;;;;;2.73;2.47;;;;;;;17.81;62.34;99017.22;5133667;27;43043;-79
2023/07/17 02:23:31;;;;;;;2.87;2.57;;;;;;;17.79;62.18;99011.16;5116229;27;42324;-78
2023/07/17 02:26:01;;;;;;;3.17;2.57;;;;;;;17.78;62.19;99020.19;5133634;27;40882;-82
2023/07/17 02:28:29;;;;;;;2.93;2.47;;;;;;;17.72;62.05;99026.06;5133624;27;41904;-80
2023/07/17 02:30:56;;;;;;;2.93;2.63;;;;;;;17.71;62.49;99030.59;5133620;27;42559;-82
2023/07/17 02:33:26;;;;;;;3.00;2.60;;;;;;;17.68;62.94;99030.84;5116455;27;41027;-80
2023/07/17 02:35:53;;;;;;;3.00;2.37;;;;;;;17.70;62.67;99028.03;5136257;27;41163;-79
2023/07/17 02:38:21;;;;;;;3.87;2.60;;;;;;;17.73;62.95;99036.66;5146572;27;40523;-79
2023/07/17 02:40:50;;;;;;;3.37;2.13;;;;;;;17.75;63.09;99039.22;5142305;27;43850;-80
2023/07/17 02:43:17;;;;;;;3.03;2.53;;;;;;;17.75;63.05;99036.53;5131967;27;42853;-80
2023/07/17 02:45:46;;;;;;;3.10;2.43;;;;;;;17.73;62.86;99033.13;5115482;27;38873;-81
2023/07/17 02:48:14;;;;;;;3.80;2.80;;;;;;;17.69;63.12;99037.06;5132480;27;42152;-80
2023/07/17 02:50:43;;;;;;;3.10;2.70;;;;;;;17.53;63.03;99022.34;5114836;27;43098;-79
2023/07/17 02:53:11;;;;;;;4.27;2.80;;;;;;;17.56;63.10;99038.13;5133623;27;42276;-80
2023/07/17 02:55:39;;;;;;;3.47;2.53;;;;;;;17.52;63.40;99039.38;5132420;27;39862;-79
2023/07/17 02:58:07;;;;;;;2.97;2.63;;;;;;;17.46;63.75;99037.22;5115102;27;40666;-79
2023/07/17 03:00:35;;;;;;;3.67;2.43;;;;;;;17.42;63.61;99034.97;5132424;27;43528;-80
2023/07/17 03:03:06;;;;;;;2.93;2.67;;;;;;;17.25;63.74;99017.72;5114995;27;42113;-80
2023/07/17 03:05:35;;;;;;;3.50;2.50;;;;;;;17.34;64.02;99041.00;5115409;27;39002;-79
2023/07/17 03:08:05;;;;;;;3.73;3.07;;;;;;;17.31;63.99;99043.91;5114925;27;42170;-82
2023/07/17 03:10:33;;;;;;;3.70;2.73;;;;;;;17.26;64.16;99051.53;5132524;27;42762;-81
2023/07/17 03:13:01;;;;;;;3.77;2.90;;;;;;;17.20;64.47;99052.03;5115890;27;41196;-81
2023/07/17 03:15:28;;;;;;;2.63;2.27;;;;;;;17.16;64.05;99053.31;5115896;27;39926;-79
2023/07/17 03:17:56;;;;;;;3.13;2.70;;;;;;;17.12;64.50;99043.84;5115847;27;42083;-82
2023/07/17 03:20:24;;;;;;;3.20;2.50;;;;;;;17.06;64.61;99050.56;5133241;27;42458;-81
2023/07/17 03:22:52;;;;;;;3.87;2.70;;;;;;;17.02;64.54;99059.84;5132794;27;43237;-80
2023/07/17 03:25:21;;;;;;;3.37;2.97;;;;;;;17.00;64.73;99061.78;5133329;27;40945;-80
2023/07/17 03:27:49;;;;;;;3.07;2.77;;;;;;;16.97;64.87;99053.19;5115513;27;41862;-80
2023/07/17 03:30:17;;;;;;;3.40;3.10;;;;;;;16.95;65.04;99058.66;5115860;27;41477;-80
2023/07/17 03:32:45;;;;;;;3.37;3.07;;;;;;;16.92;65.02;99056.25;5115402;27;40893;-80
2023/07/17 03:35:14;;;;;;;3.00;2.60;;;;;;;16.91;65.20;99061.75;5132781;27;40173;-79
2023/07/17 03:37:41;;;;;;;3.23;2.93;;;;;;;16.84;65.06;99051.53;5130201;27;41955;-82
2023/07/17 03:40:11;;;;;;;2.83;2.63;;;;;;;16.85;65.41;99050.56;5131488;27;42736;-81
2023/07/17 03:42:40;;;;;;;3.70;2.80;;;;;;;16.84;65.28;99062.25;5132555;27;43268;-81
2023/07/17 03:45:09;;;;;;;3.50;3.03;;;;;;;16.85;65.28;99057.75;5114449;27;41201;-79
2023/07/17 03:47:38;;;;;;;2.30;2.10;;;;;;;16.86;65.17;99060.28;5114210;27;40701;-82
2023/07/17 03:50:07;;;;;;;2.73;2.50;;;;;;;16.86;65.59;99056.78;5113782;27;43040;-79
2023/07/17 03:52:34;;;;;;;3.73;2.47;;;;;;;16.90;65.46;99060.03;5114116;27;41296;-82
2023/07/17 03:55:02;;;;;;;2.53;2.33;;;;;;;16.92;65.33;99060.75;5131138;27;40015;-79
2023/07/17 03:57:31;;;;;;;2.80;2.50;;;;;;;16.84;65.28;99040.84;5113809;27;42108;-80
2023/07/17 04:00:00;;;;;;;3.13;2.60;;;;;;;16.96;65.37;99064.84;5114111;27;41898;-80
2023/07/17 04:02:40;;;;;;;3.23;2.80;;;;;;;17.00;65.62;99056.44;5131033;27;41235;-82
2023/07/17 04:05:10;;;;;;;3.40;2.63;;;;;;;17.04;65.50;99067.75;5113839;27;39293;-81
2023/07/17 04:07:38;;;;;;;3.07;2.87;;;;;;;16.98;66.08;99046.84;5131142;27;42672;-80
2023/07/17 04:10:07;;;;;;;4.13;2.60;;;;;;;17.12;65.91;99065.25;5114298;27;42904;-83
2023/07/17 04:12:35;;;;;;;3.60;3.20;;;;;;;17.17;66.14;99057.69;5114964;27;42192;-79
2023/07/17 04:15:05;;;;;;;2.80;2.50;;;;;;;17.19;66.20;99055.69;5115155;27;38908;-81
2023/07/17 04:17:33;;;;;;;2.97;2.57;;;;;;;17.24;67.11;99061.50;5114724;27;41879;-79
2023/07/17 04:20:01;;;;;;;3.77;3.00;;;;;;;17.27;67.11;99058.56;5114627;27;43665;-81
2023/07/17 04:22:29;;;;;;;5.17;3.43;;;;;;;17.30;67.54;99058.31;5131949;27;42608;-81
2023/07/17 04:24:57;;;;;;;4.30;3.27;;;;;;;17.03;67.38;99004.50;5131992;27;39746;-81
2023/07/17 04:27:26;;;;;;;3.43;3.03;;;;;;;17.40;67.43;99077.94;5114166;27;40664;-78
2023/07/17 04:29:54;;;;;;;3.50;3.20;;;;;;;17.36;67.40;99063.13;5132429;27;42800;-82
2023/07/17 04:32:25;;;;;;;4.77;2.90;;;;;;;17.50;67.56;99086.88;5114629;27;40915;-82
2023/07/17 04:34:52;;;;;;;4.37;3.57;;;;;;;17.56;67.09;99080.97;5115003;27;39145;-83
2023/07/17 04:37:20;;;;;;;3.10;2.80;;;;;;;17.63;66.74;99085.78;5114877;27;40565;-82
2023/07/17 04:39:48;;;;;;;3.47;3.17;;;;;;;17.69;66.45;99096.84;5130631;27;43636;-82
2023/07/17 04:42:16;;;;;;;4.17;3.00;;;;;;;17.69;66.57;99082.59;5113318;27;42594;-82
2023/07/17 04:44:45;;;;;;;3.70;2.90;;;;;;;17.74;66.60;99083.91;5113863;27;38862;-84
2023/07/17 04:47:14;;;;;;;4.77;3.10;;;;;;;17.83;66.69;99082.22;5113579;27;41170;-84
2023/07/17 04:49:45;;;;;;;4.47;3.07;;;;;;;18.01;66.61;99102.03;5113613;27;42871;-81
2023/07/17 04:52:12;;;;;;;3.47;3.17;;;;;;;18.13;66.33;99100.94;5113223;27;41556;-83
2023/07/17 04:54:41;;;;;;;3.37;3.07;;;;;;;18.23;66.28;99107.16;5113951;27;41111;-85
2023/07/17 04:57:09;;;;;;;5.63;3.60;;;;;;;18.36;66.11;99108.75;5113621;27;42271;-85
2023/07/17 04:59:37;;;;;;;4.17;3.10;;;;;;;18.43;65.68;99097.31;5113237;27;41416;-80
2023/07/17 05:02:05;;;;;;;3.47;3.00;;;;;;;18.59;65.87;99107.53;5113269;27;41571;-84
2023/07/17 05:04:33;;;;;;;3.30;3.00;;;;;;;18.59;65.80;99091.44;5113440;27;39125;-85
2023/07/17 05:07:03;;;;;;;4.27;3.30;;;;;;;18.65;66.08;99090.88;5113786;27;41905;-81
2023/07/17 05:09:30;;;;;;;4.70;3.33;;;;;;;18.90;65.88;99122.53;5117349;27;41573;-84
2023/07/17 05:11:58;;;;;;;4.00;3.33;;;;;;;19.00;65.36;99120.66;5134977;27;43061;-85
2023/07/17 05:14:26;;;;;;;3.60;3.30;;;;;;;19.11;65.42;99118.81;5118241;27;39496;-81
2023/07/17 05:16:54;;;;;;;5.07;2.90;;;;;;;19.11;65.36;99108.94;5117789;27;41021;-81
2023/07/17 05:19:24;;;;;;;3.50;3.03;;;;;;;19.35;65.20;99132.63;5118052;27;41649;-83
2023/07/17 05:21:52;;;;;;;5.00;3.30;;;;;;;19.46;65.16;99140.50;5117519;27;41550;-81
2023/07/17 05:24:23;;;;;;;4.00;3.43;;;;;;;19.55;65.25;99122.69;5117948;27;39002;-84
2023/07/17 05:26:50;;;;;;;4.47;3.73;;;;;;;19.76;64.92;99136.78;5117415;27;41679;-81
2023/07/17 05:29:19;;;;;;;4.13;3.73;;;;;;;19.91;64.91;99129.91;5135137;27;42751;-81
2023/07/17 05:31:47;;;;;;;5.07;3.10;;;;;;;20.09;64.93;99132.69;5134840;27;42214;-86
2023/07/17 05:34:15;;;;;;;3.57;3.27;;;;;;;20.20;64.11;99139.69;5135235;27;40920;-82
2023/07/17 05:36:42;;;;;;;4.83;3.30;;;;;;;20.23;64.08;99140.25;5134849;27;41960;-88
2023/07/17 05:39:10;;;;;;;4.03;3.03;;;;;;;20.16;64.14;99117.63;5133631;27;42716;-87
2023/07/17 05:41:39;;;;;;;5.83;3.23;;;;;;;20.36;63.23;99140.78;5115777;27;41264;-81
2023/07/17 05:44:07;;;;;;;4.17;3.00;;;;;;;20.48;62.79;99130.66;5116582;27;40192;-82
2023/07/17 05:46:35;;;;;;;4.47;3.37;;;;;;;20.70;62.36;99142.81;5116168;27;40753;-84
2023/07/17 05:49:03;;;;;;;4.60;3.50;;;;;;;20.70;61.96;99121.28;5133605;27;42463;-82
2023/07/17 05:51:32;;;;;;;5.30;3.33;;;;;;;21.04;61.45;99145.63;5115896;27;41288;-87
2023/07/17 05:54:00;;;;;;;5.03;3.73;;;;;;;21.23;61.22;99155.44;5116537;27;39067;-86
2023/07/17 05:56:28;;;;;;;4.27;2.97;;;;;;;21.39;60.79;99161.78;5116462;27;40699;-81
2023/07/17 05:58:57;;;;;;;4.60;3.03;;;;;;;21.56;60.09;99160.06;5116647;27;42540;-84
2023/07/17 06:01:25;;;;;;;5.43;3.07;;;;;;;21.71;58.94;99155.78;5133372;27;40982;-81
2023/07/17 06:03:54;;;;;;;4.77;3.13;;;;;;;21.91;58.66;99151.00;5116092;27;38530;-84
2023/07/17 06:06:22;;;;;;;4.77;3.10;;;;;;;22.20;58.24;99156.06;5133356;27;42733;-85
2023/07/17 06:08:49;;;;;;;5.20;3.40;;;;;;;22.40;57.71;99143.97;5133793;27;43470;-89
2023/07/17 06:11:17;;;;;;;4.77;3.50;;;;;;;22.65;56.91;99171.03;5119232;27;41340;-84
2023/07/17 06:13:45;;;;;;;4.97;3.00;;;;;;;22.82;56.67;99168.25;5117755;27;38991;-87
2023/07/17 06:16:14;;;;;;;5.53;3.20;;;;;;;22.85;56.13;99145.50;5155326;27;41839;-80
2023/07/17 06:18:42;;;;;;;6.47;3.47;;;;;;;22.99;56.17;99163.75;5137907;27;42772;-80
2023/07/17 06:21:10;;;;;;;4.40;2.90;;;;;;;23.16;55.28;99173.53;5118479;27;41158;-86
2023/07/17 06:23:38;;;;;;;4.77;3.57;;;;;;;23.45;53.93;99180.28;5134576;27;40074;-86
2023/07/17 06:26:06;;;;;;;5.20;3.23;;;;;;;23.73;53.89;99186.22;5116741;27;41147;-86
2023/07/17 06:28:34;;;;;;;4.57;2.80;;;;;;;24.05;53.27;99194.25;5116790;27;41901;-82
2023/07/17 06:31:02;;;;;;;3.50;2.77;;;;;;;24.18;52.49;99182.88;5133870;27;43273;-83
2023/07/17 06:33:34;;;;;;;4.47;2.80;;;;;;;24.45;52.17;99201.44;5114200;27;39933;-83
2023/07/17 06:36:02;;;;;;;4.53;3.17;;;;;;;24.57;51.41;99181.06;5114432;27;40691;-88
2023/07/17 06:38:30;;;;;;;4.10;3.33;;;;;;;24.97;51.36;99190.00;5115012;27;41911;-87
2023/07/17 06:40:58;;;;;;;4.93;3.20;;;;;;;25.22;51.00;99187.97;5114668;27;41923;-87
2023/07/17 06:43:26;;;;;;;4.63;2.90;;;;;;;25.35;49.44;99197.16;5115482;27;39653;-85
2023/07/17 06:45:53;;;;;;;5.23;3.33;;;;;;;25.38;49.01;99204.06;5132507;27;41824;-86
2023/07/17 06:48:21;;;;;;;4.67;3.03;;;;;;;25.65;48.79;99208.13;5132191;27;41937;-88
2023/07/17 06:50:50;;;;;;;5.07;2.87;;;;;;;25.68;48.52;99189.63;5114513;27;41849;-87
2023/07/17 06:53:18;;;;;;;5.07;3.30;;;;;;;25.92;48.23;99203.97;5132393;27;38961;-85
2023/07/17 06:55:46;;;;;;;6.17;3.27;;;;;;;26.19;47.95;99221.50;5131499;27;40517;-83
2023/07/17 06:58:14;;;;;;;4.27;3.07;;;;;;;26.20;46.63;99232.19;5130261;27;43604;-84
2023/07/17 07:00:41;;;;;;;5.20;3.40;;;;;;;26.37;46.59;99227.41;5111101;28;41431;-83
2023/07/17 07:03:09;;;;;;;9.13;3.73;;;;;;;26.58;45.79;99223.94;5111850;28;40065;-85
2023/07/17 07:05:37;;;;;;;5.67;3.70;;;;;;;26.47;45.37;99223.38;5100277;28;40868;-88
2023/07/17 07:08:07;;;;;;;4.83;3.23;;;;;;;26.59;45.50;99231.88;5093876;28;43700;-88
2023/07/17 07:10:34;;;;;;;5.23;3.27;;;;;;;27.04;44.93;99240.84;5111651;28;41234;-84
2023/07/17 07:13:02;;;;;;;4.97;3.33;;;;;;;27.14;45.20;99238.66;5112161;28;40124;-82
2023/07/17 07:15:30;;;;;;;5.27;3.20;;;;;;;27.17;43.88;99235.56;5132137;27;41830;-83
2023/07/17 07:18:00;;;;;;;5.03;3.60;;;;;;;27.24;44.10;99220.13;5115829;27;42779;-89
2023/07/17 07:20:28;;;;;;;5.60;3.50;;;;;;;27.32;43.53;99258.09;5112212;28;42019;-82
2023/07/17 07:22:56;;;;;;;3.97;3.40;;;;;;;27.26;43.02;99237.09;5095333;28;39934;-86
2023/07/17 07:25:25;;;;;;;4.77;3.47;;;;;;;27.40;43.25;99257.97;5102429;27;40883;-81
2023/07/17 07:27:53;;;;;;;4.20;3.17;;;;;;;27.13;43.70;99242.41;5132395;27;42828;-82
2023/07/17 07:30:20;;;;;;;5.47;3.50;;;;;;;26.92;43.48;99251.34;5111824;27;41820;-87
2023/07/17 07:32:48;;;;;;;4.57;3.13;;;;;;;26.86;43.53;99249.38;5113454;28;39678;-83
2023/07/17 07:35:16;;;;;;;4.77;3.37;;;;;;;27.06;43.11;99255.09;5101712;27;41943;-82
2023/07/17 07:37:44;;;;;;;5.67;3.53;;;;;;;27.43;42.88;99235.81;5132671;27;42904;-84
2023/07/17 07:40:12;;;;;;;4.93;3.43;;;;;;;27.87;42.04;99234.75;5130490;27;42177;-84
2023/07/17 07:42:42;;;;;;;4.23;3.60;;;;;;;28.34;40.39;99255.03;5131925;27;39297;-85
2023/07/17 07:45:12;;;;;;;8.70;3.80;;;;;;;28.43;39.87;99254.69;5131067;27;44079;-82
2023/07/17 07:47:40;;;;;;;5.77;3.93;;;;;;;28.48;40.44;99256.78;5131217;27;41603;-79
2023/07/17 07:50:09;;;;;;;5.23;3.63;;;;;;;28.70;39.57;99266.53;5130504;27;42242;-85
2023/07/17 07:52:38;;;;;;;6.10;4.00;;;;;;;29.31;37.68;99280.22;5114033;27;39015;-84
2023/07/17 07:55:06;;;;;;;5.67;3.73;;;;;;;30.63;35.39;99272.13;5109824;28;41714;-86
2023/07/17 07:57:34;;;;;;;4.77;3.93;;;;;;;32.40;33.07;99288.56;5110259;28;41608;-87
2023/07/17 08:00:04;;;;;;;4.90;3.60;;;;;;;33.79;31.17;99296.78;5097481;27;42351;-85
2023/07/17 08:02:41;;;;;;;5.27;3.83;;;;;;;34.67;28.69;99319.84;5130174;27;40285;-82
2023/07/17 08:05:10;;;;;;;4.50;3.40;;;;;;;34.64;29.59;99312.06;5109559;28;41274;-81
2023/07/17 08:07:38;;;;;;;4.27;3.73;;;;;;;34.53;29.37;99303.56;5092916;28;41983;-87
2023/07/17 08:10:06;;;;;;;4.50;3.60;;;;;;;34.66;28.20;99316.25;5114280;27;41849;-86
2023/07/17 08:12:34;;;;;;;6.60;3.60;;;;;;;35.16;27.51;99316.53;5113763;27;40054;-85
2023/07/17 08:15:03;;;;;;;9.07;4.00;;;;;;;36.18;26.93;99326.75;5110114;28;40426;-84
2023/07/17 08:17:32;;;;;;;4.45;3.78;;;;;;;37.48;25.51;99322.56;5111278;28;43395;-80
2023/07/17 08:19:59;;;;;;;5.43;3.60;;;;;;;38.66;24.82;99324.25;5114300;27;42321;-82
2023/07/17 08:22:27;;;;;;;3.83;2.90;;;;;;;39.55;23.44;99334.41;5133056;27;41007;-87
2023/07/17 08:24:55;;;;;;;4.68;3.40;;;;;;;40.15;21.85;99346.72;5131336;27;41617;-82
2023/07/17 08:27:22;;;;;;;3.65;3.00;;;;;;;40.37;21.76;99346.47;5131195;27;42865;-87
2023/07/17 08:29:59;;;;;;;3.75;3.10;;;;;;;40.42;21.29;99352.03;5113745;27;40812;-81
2023/07/17 08:32:28;;;;;;;4.25;3.58;;;;;;;40.51;21.45;99350.34;5130738;27;40744;-84
2023/07/17 08:34:55;;;;;;;3.92;3.50;;;;;;;40.24;21.41;99352.53;5113592;27;41311;-84
2023/07/17 08:37:23;;;;;;;4.93;3.60;;;;;;;39.67;21.66;99343.31;5114243;27;41756;-84
2023/07/17 08:39:51;;;;;;;4.32;3.40;;;;;;;39.35;21.73;99332.34;5114047;27;41121;-86
2023/07/17 08:42:19;;;;;;;5.53;3.13;;;;;;;39.38;21.06;99329.03;5132162;27;39961;-81
2023/07/17 08:44:46;;;;;;;4.35;3.35;;;;;;;39.45;21.02;99321.31;5116396;27;40428;-86
2023/07/17 08:47:15;;;;;;;4.97;3.50;;;;;;;38.48;21.29;99327.41;5116646;27;42917;-87
2023/07/17 08:49:45;;;;;;;5.57;3.50;;;;;;;37.64;22.29;99311.44;5117098;27;41120;-84
2023/07/17 08:52:14;;;;;;;7.70;4.15;;;;;;;36.98;23.38;99313.38;5116740;27;39142;-81
2023/07/17 08:54:42;;;;;;;3.72;3.05;;;;;;;36.49;22.25;99330.84;5134671;27;41840;-82
2023/07/17 08:57:11;;;;;;;4.93;3.10;;;;;;;35.86;22.04;99320.94;5134740;27;41979;-86
2023/07/17 08:59:39;;;;;;;4.40;3.58;;;;;;;35.56;23.38;99318.47;5118048;27;41079;-91
2023/07/17 09:02:07;;;;;;;5.63;3.85;;;;;;;35.31;23.37;99291.25;5116427;27;41175;-82
2023/07/17 09:04:35;;;;;;;6.13;3.77;;;;;;;35.37;22.96;99311.47;5133584;27;41842;-81
2023/07/17 09:07:05;;;;;;;4.47;3.60;;;;;;;35.51;21.66;99321.09;5116073;27;42771;-82
2023/07/17 09:09:32;;;;;;;4.10;3.20;;;;;;;35.61;21.65;99335.06;5116109;27;42930;-82
2023/07/17 09:12:08;;;;;;;4.17;3.77;;;;;;;35.24;22.50;99321.66;5133637;27;38625;-81
2023/07/17 09:14:36;;;;;;;5.20;3.60;;;;;;;35.42;22.39;99298.63;5131383;27;42785;-86
2023/07/17 09:17:07;;;;;;;4.07;3.43;;;;;;;35.42;22.31;99286.78;5135676;27;42601;-85
2023/07/17 09:19:36;;;;;;;3.80;3.50;;;;;;;35.42;23.46;99314.31;5117341;27;41558;-82
2023/07/17 09:22:07;;;;;;;5.07;4.00;;;;;;;35.41;23.02;99318.16;5133776;27;40381;-81
2023/07/17 09:24:36;;;;;;;4.90;3.30;;;;;;;35.74;23.75;99303.63;5130124;27;42569;-77
2023/07/17 09:27:07;;;;;;;4.97;3.10;;;;;;;35.90;23.17;99305.59;5133068;27;42911;-77
2023/07/17 09:29:34;;;;;;;5.17;3.70;;;;;;;35.19;23.20;99299.53;5130806;27;42302;-82
2023/07/17 09:32:18;;;;;;;7.30;3.27;;;;;;;34.81;23.57;99313.03;5115910;27;38981;-81
2023/07/17 09:34:52;;;;;;;4.03;3.53;;;;;;;34.43;23.65;99299.75;5130129;27;41888;-82
2023/07/17 09:37:21;;;;;;;4.10;3.37;;;;;;;34.05;23.71;99302.94;5133152;27;43385;-78
2023/07/17 09:39:52;;;;;;;5.07;3.57;;;;;;;33.49;24.19;99282.22;5132287;27;43018;-81
2023/07/17 09:42:24;;;;;;;5.47;3.50;;;;;;;33.11;24.47;99302.56;5134846;27;39462;-78
2023/07/17 09:44:53;;;;;;;5.23;3.47;;;;;;;33.22;24.74;99297.34;5119318;27;40707;-78
2023/07/17 09:47:21;;;;;;;5.23;3.30;;;;;;;34.11;24.18;99291.00;5135895;27;42871;-78
2023/07/17 09:49:51;;;;;;;5.43;3.67;;;;;;;35.41;23.06;99302.47;5130980;27;42110;-79
2023/07/17 09:52:21;;;;;;;4.73;4.20;;;;;;;36.08;22.41;99318.31;5130828;27;40824;-78
2023/07/17 09:54:51;;;;;;;4.43;3.47;;;;;;;35.32;22.42;99294.84;5114272;27;40843;-79
2023/07/17 09:57:26;;;;;;;4.20;3.40;;;;;;;34.72;22.95;99286.94;5114931;27;41697;-81
2023/07/17 09:59:57;;;;;;;5.77;3.47;;;;;;;34.28;23.11;99302.13;5131747;27;42464;-79
2023/07/17 10:02:30;;;;;;;4.93;4.03;;;;;;;34.62;23.27;99303.22;5130132;27;40067;-79
2023/07/17 10:05:01;;;;;;;5.63;3.57;;;;;;;34.75;22.95;99297.44;5129426;27;42570;-78
2023/07/17 10:07:33;;;;;;;5.77;3.67;;;;;;;34.49;23.31;99299.66;5114323;27;41713;-78
2023/07/17 10:10:02;;;;;;;5.27;3.50;;;;;;;34.21;23.19;99280.25;5131234;27;42931;-78
2023/07/17 10:12:30;;;;;;;5.07;3.33;;;;;;;34.16;23.33;99288.34;5134008;27;40239;-80
2023/07/17 10:14:59;;;;;;;4.67;3.50;;;;;;;34.44;23.20;99305.03;5132475;27;40548;-80
2023/07/17 10:17:31;;;;;;;7.70;4.07;;;;;;;35.06;23.11;99297.06;5132418;27;42039;-80
2023/07/17 10:20:00;;;;;;;6.20;4.07;;;;;;;35.23;23.23;99306.25;5111285;28;41120;-81
2023/07/17 10:22:34;;;;;;;6.57;4.20;;;;;;;35.24;23.22;99294.13;5112479;28;39939;-79
2023/07/17 10:25:28;;;;;;;4.90;3.43;;;;;;;35.75;22.85;99297.88;5115327;27;45226;-83
2023/07/17 10:27:58;;;;;;;3.50;3.17;;;;;;;35.21;22.12;99305.63;5122161;27;43011;-80
2023/07/17 10:30:28;;;;;;;4.00;3.70;;;;;;;34.79;22.73;99287.66;5130481;27;42999;-79
2023/07/17 10:33:13;;;;;;;5.47;4.07;;;;;;;34.62;23.10;99303.22;5114645;27;39880;-79
2023/07/17 10:35:47;;;;;;;5.03;3.90;;;;;;;34.62;23.53;99279.28;5131950;27;41661;-78
2023/07/17 10:38:46;;;;;;;;;;;;;;;;;;;;;
2023/07/17 10:41:39;;;;;;;3.93;3.43;;;;;;;36.19;22.41;99265.00;5083022;28;43922;-77
2023/07/17 10:44:08;;;;;;;4.70;4.03;;;;;;;36.71;21.98;99290.38;5109625;28;41979;-78
2023/07/17 10:46:37;;;;;;;4.13;3.53;;;;;;;36.89;21.25;99286.47;5092691;28;40679;-77
2023/07/17 10:49:06;;;;;;;7.10;4.30;;;;;;;37.17;21.78;99286.31;5109596;28;42698;-79
2023/07/17 10:51:34;;;;;;;5.67;3.63;;;;;;;36.88;21.80;99263.53;5092720;28;40633;-76
2023/07/17 10:54:04;;;;;;;4.50;3.87;;;;;;;36.87;21.73;99283.13;5092557;28;39815;-77
2023/07/17 10:56:32;;;;;;;5.43;3.70;;;;;;;36.58;21.50;99268.66;5092123;28;40647;-77
2023/07/17 10:59:00;;;;;;;5.72;3.90;;;;;;;36.20;21.39;99264.75;5075443;28;43537;-78
2023/07/17 11:01:31;;;;;;;5.33;4.03;;;;;;;36.04;22.50;99239.94;5093578;28;20218;-77
2023/07/17 11:03:58;;;;;;;4.20;3.70;;;;;;;35.99;22.75;99271.84;5091912;27;39949;-77
2023/07/17 11:06:28;;;;;;;6.13;4.00;;;;;;;36.41;23.35;99263.16;5108324;28;42544;-77
2023/07/17 11:08:56;;;;;;;4.50;3.75;;;;;;;36.48;22.38;99258.28;5074936;28;41601;-77
2023/07/17 11:11:25;;;;;;;4.80;3.90;;;;;;;36.50;21.83;99275.41;5076961;27;42691;-79
2023/07/17 11:13:53;;;;;;;4.67;3.93;;;;;;;36.37;23.01;99247.34;5114824;27;40618;-77
2023/07/17 11:16:23;;;;;;;5.73;4.03;;;;;;;36.25;22.72;99244.69;5106086;27;40472;-77
2023/07/17 11:18:52;;;;;;;6.10;3.90;;;;;;;36.32;22.77;99243.44;5132784;27;43502;-79
2023/07/17 11:21:23;;;;;;;4.17;3.77;;;;;;;36.30;22.77;99264.09;5110011;28;41085;-81
2023/07/17 11:23:53;;;;;;;6.33;4.03;;;;;;;36.13;22.49;99250.28;5093566;28;40102;-79
2023/07/17 11:26:24;;;;;;;6.37;4.57;;;;;;;36.27;22.78;99242.53;5131463;27;41762;-78
2023/07/17 11:28:55;;;;;;;7.43;4.13;;;;;;;36.50;22.59;99267.13;5113954;27;41863;-84
2023/07/17 11:31:26;;;;;;;5.27;4.03;;;;;;;36.44;21.84;99246.09;5128329;27;42137;-83
2023/07/17 11:33:58;;;;;;;5.15;4.00;;;;;;;36.66;21.73;99252.47;5131752;27;41091;-80
2023/07/17 11:36:26;;;;;;;5.65;3.60;;;;;;;36.42;21.31;99248.28;5126754;27;41636;-77
2023/07/17 11:38:57;;;;;;;4.47;3.80;;;;;;;36.17;21.66;99239.59;5131536;27;43292;-80
2023/07/17 11:41:25;;;;;;;5.18;4.15;;;;;;;36.49;22.60;99232.34;5127360;27;42922;-79
2023/07/17 11:43:58;;;;;;;5.32;3.70;;;;;;;36.80;21.61;99249.38;5130519;27;40205;-81